createdAt,value
2018-08-16T00:01:16.725Z,51.32
2018-08-16T00:03:44.455Z,51.50
2018-08-16T00:06:12.136Z,51.81
2018-08-16T00:08:39.748Z,51.61
2018-08-16T00:11:07.387Z,51.86
2018-08-16T00:13:35.060Z,52.04
2018-08-16T00:16:02.768Z,51.78
2018-08-16T00:18:30.547Z,51.87
2018-08-16T00:20:58.176Z,52.14
2018-08-16T00:23:25.810Z,52.05
2018-08-16T00:25:53.459Z,52.43
2018-08-16T00:28:21.136Z,52.01
2018-08-16T00:30:48.741Z,51.97
2018-08-16T00:33:16.429Z,52.14
2018-08-16T00:35:44.137Z,51.81
2018-08-16T00:38:11.861Z,52.24
2018-08-16T00:40:39.511Z,52.58
2018-08-16T00:43:07.271Z,52.62
2018-08-16T00:45:34.967Z,52.91
2018-08-16T00:48:02.573Z,52.97
2018-08-16T00:50:30.288Z,53.05
2018-08-16T00:52:57.917Z,53.01
2018-08-16T00:55:25.549Z,52.62
2018-08-16T00:57:53.280Z,53.10
2018-08-16T01:00:20.923Z,52.83
2018-08-16T01:02:48.521Z,53.46
2018-08-16T01:05:16.169Z,53.42
2018-08-16T01:07:43.819Z,53.42
2018-08-16T01:10:12.787Z,53.32
2018-08-16T01:12:41.092Z,53.39
2018-08-16T01:15:10.349Z,53.46
2018-08-16T01:17:37.990Z,53.59
2018-08-16T01:20:05.959Z,53.84
2018-08-16T01:22:33.614Z,53.67
2018-08-16T01:25:01.252Z,53.85
2018-08-16T01:27:28.910Z,54.04
2018-08-16T01:29:56.528Z,54.17
2018-08-16T01:32:24.200Z,54.47
2018-08-16T01:34:51.813Z,54.47
2018-08-16T01:37:19.460Z,54.23
2018-08-16T01:39:47.070Z,53.94
2018-08-16T01:42:14.782Z,54.48
2018-08-16T01:44:42.385Z,54.47
2018-08-16T01:47:09.965Z,54.77
2018-08-16T01:49:38.196Z,55.06
2018-08-16T01:52:06.199Z,54.97
2018-08-16T01:54:33.963Z,55.41
2018-08-16T01:57:02.112Z,54.97
2018-08-16T01:59:29.759Z,54.97
2018-08-16T02:01:57.412Z,55.43
2018-08-16T02:04:25.086Z,55.22
2018-08-16T02:06:53.123Z,55.19
2018-08-16T02:09:21.634Z,55.54
2018-08-16T02:11:49.407Z,55.67
2018-08-16T02:14:17.423Z,56.09
2018-08-16T02:16:45.103Z,55.91
2018-08-16T02:19:12.805Z,55.96
2018-08-16T02:21:40.493Z,56.06
2018-08-16T02:24:08.238Z,56.42
2018-08-16T02:26:35.972Z,56.30
2018-08-16T02:29:03.716Z,56.42
2018-08-16T02:31:31.651Z,56.39
2018-08-16T02:33:59.326Z,56.60
2018-08-16T02:36:27.027Z,56.43
2018-08-16T02:38:55.109Z,56.53
2018-08-16T02:41:22.804Z,56.79
2018-08-16T02:43:50.452Z,56.83
2018-08-16T02:46:18.104Z,56.91
2018-08-16T02:48:45.763Z,56.75
2018-08-16T02:51:13.652Z,56.76
2018-08-16T02:53:41.349Z,56.88
2018-08-16T02:56:09.011Z,56.96
2018-08-16T02:58:36.626Z,56.90
2018-08-16T03:01:04.323Z,57.03
2018-08-16T03:03:32.271Z,57.03
2018-08-16T03:05:59.954Z,56.92
2018-08-16T03:08:27.613Z,57.43
2018-08-16T03:10:55.268Z,57.56
2018-08-16T03:13:23.044Z,57.70
2018-08-16T03:15:50.636Z,57.35
2018-08-16T03:18:18.348Z,57.34
2018-08-16T03:20:45.964Z,57.26
2018-08-16T03:23:13.609Z,57.40
2018-08-16T03:25:41.335Z,57.05
2018-08-16T03:28:08.967Z,57.46
2018-08-16T03:30:36.614Z,57.55
2018-08-16T03:33:04.271Z,57.66
2018-08-16T03:35:31.962Z,57.49
2018-08-16T03:37:59.588Z,57.57
2018-08-16T03:40:27.260Z,57.74
2018-08-16T03:42:54.862Z,57.65
2018-08-16T03:45:22.611Z,57.79
2018-08-16T03:47:50.217Z,57.78
2018-08-16T03:50:17.886Z,58.02
2018-08-16T03:52:45.650Z,57.55
2018-08-16T03:55:13.283Z,57.43
2018-08-16T03:57:41.099Z,57.42
2018-08-16T04:00:08.766Z,57.65
2018-08-16T04:02:36.429Z,57.48
2018-08-16T04:05:04.504Z,57.64
2018-08-16T04:07:32.154Z,57.75
2018-08-16T04:09:59.787Z,58.03
2018-08-16T04:12:33.574Z,58.26
2018-08-16T04:15:01.234Z,58.20
2018-08-16T04:17:36.061Z,57.83
2018-08-16T04:20:04.407Z,57.82
2018-08-16T04:22:32.226Z,58.23
2018-08-16T04:24:59.852Z,58.03
2018-08-16T04:27:27.866Z,58.33
2018-08-16T04:29:55.695Z,58.03
2018-08-16T04:32:23.313Z,58.34
2018-08-16T04:34:50.949Z,58.08
2018-08-16T04:37:18.598Z,58.18
2018-08-16T04:39:46.258Z,57.98
2018-08-16T04:42:14.047Z,58.25
2018-08-16T04:44:41.975Z,58.28
2018-08-16T04:47:09.630Z,58.21
2018-08-16T04:49:37.319Z,57.87
2018-08-16T04:52:05.290Z,57.71
2018-08-16T04:54:33.031Z,57.99
2018-08-16T04:57:00.853Z,57.54
2018-08-16T04:59:28.431Z,57.74
2018-08-16T05:01:56.038Z,57.34
2018-08-16T05:04:23.747Z,57.37
2018-08-16T05:06:52.503Z,56.88
2018-08-16T05:09:20.232Z,56.66
2018-08-16T05:11:47.856Z,56.47
2018-08-16T05:14:15.481Z,56.65
2018-08-16T05:16:43.148Z,56.49
2018-08-16T05:19:10.835Z,56.39
2018-08-16T05:21:38.476Z,55.86
2018-08-16T05:24:06.164Z,55.84
2018-08-16T05:26:33.832Z,56.12
2018-08-16T05:29:01.445Z,56.38
2018-08-16T05:31:29.205Z,55.73
2018-08-16T05:33:56.900Z,55.33
2018-08-16T05:36:24.612Z,54.64
2018-08-16T05:38:52.220Z,54.21
2018-08-16T05:41:20.013Z,53.64
2018-08-16T05:43:47.864Z,53.78
2018-08-16T05:46:15.570Z,53.16
2018-08-16T05:48:43.244Z,53.00
2018-08-16T05:51:10.867Z,53.28
2018-08-16T05:53:38.584Z,52.62
2018-08-16T05:56:06.395Z,52.67
2018-08-16T05:58:34.136Z,52.70
2018-08-16T06:01:01.816Z,51.70
2018-08-16T06:03:29.473Z,51.34
2018-08-16T06:05:57.085Z,51.46
2018-08-16T06:08:24.730Z,50.90
2018-08-16T06:10:52.403Z,50.85
2018-08-16T06:13:20.165Z,50.36
2018-08-16T06:15:47.780Z,50.41
2018-08-16T06:18:15.560Z,49.65
2018-08-16T06:20:43.254Z,49.05
2018-08-16T06:23:10.900Z,48.45
2018-08-16T06:25:38.603Z,48.12
2018-08-16T06:28:06.572Z,47.33
2018-08-16T06:30:34.247Z,46.66
2018-08-16T06:33:01.912Z,46.84
2018-08-16T06:35:29.558Z,45.35
2018-08-16T06:37:57.323Z,45.20
2018-08-16T06:40:24.982Z,44.55
2018-08-16T06:42:52.614Z,44.72
2018-08-16T06:45:20.359Z,43.98
2018-08-16T06:47:48.046Z,43.51
2018-08-16T06:50:15.712Z,43.16
2018-08-16T06:52:43.619Z,42.63
2018-08-16T06:55:11.320Z,43.12
2018-08-16T06:57:39.031Z,42.41
2018-08-16T07:00:07.413Z,41.79
2018-08-16T07:02:35.395Z,40.03
2018-08-16T07:05:03.192Z,40.44
2018-08-16T07:07:30.855Z,39.10
2018-08-16T07:09:58.580Z,38.90
2018-08-16T07:12:26.436Z,39.03
2018-08-16T07:14:54.011Z,38.31
2018-08-16T07:17:21.666Z,38.03
2018-08-16T07:19:49.299Z,37.96
2018-08-16T07:22:16.977Z,36.98
2018-08-16T07:24:44.709Z,36.52
2018-08-16T07:27:12.367Z,36.16
2018-08-16T07:29:40.122Z,34.77
2018-08-16T07:32:07.911Z,34.28
2018-08-16T07:34:35.573Z,34.22
2018-08-16T07:37:03.374Z,34.47
2018-08-16T07:39:31.050Z,34.50
2018-08-16T07:41:58.680Z,34.00
2018-08-16T07:44:26.341Z,33.71
2018-08-16T07:46:53.996Z,33.55
2018-08-16T07:49:21.763Z,32.74
2018-08-16T07:51:49.454Z,32.52
2018-08-16T07:54:18.324Z,32.33
2018-08-16T07:56:45.961Z,31.73
2018-08-16T07:59:13.605Z,32.26
2018-08-16T08:01:41.354Z,31.04
2018-08-16T08:04:09.071Z,30.87
2018-08-16T08:06:36.816Z,30.62
2018-08-16T08:09:07.031Z,30.59
2018-08-16T08:11:34.584Z,30.60
2018-08-16T08:14:02.310Z,30.00
2018-08-16T08:16:30.020Z,29.79
2018-08-16T08:18:57.747Z,29.28
2018-08-16T08:21:25.420Z,28.77
2018-08-16T08:23:53.088Z,27.85
2018-08-16T08:26:20.797Z,27.71
2018-08-16T08:28:48.508Z,26.89
2018-08-16T08:31:16.169Z,25.48
2018-08-16T08:33:43.779Z,24.88
2018-08-16T08:36:22.562Z,25.15
2018-08-16T08:38:50.211Z,23.85
2018-08-16T08:41:17.904Z,23.00
2018-08-16T08:43:56.585Z,23.03
2018-08-16T08:46:24.235Z,21.96
2018-08-16T08:48:52.308Z,23.25
2018-08-16T08:51:20.033Z,22.35
2018-08-16T08:55:08.304Z,22.19
2018-08-16T08:57:47.159Z,22.07
2018-08-16T09:00:14.895Z,21.77
2018-08-16T09:02:42.568Z,21.29
2018-08-16T09:05:10.349Z,21.55
2018-08-16T09:07:38.108Z,21.05
2018-08-16T09:11:15.633Z,20.39
2018-08-16T09:14:09.430Z,20.58
2018-08-16T09:16:40.438Z,20.38
2018-08-16T09:19:08.955Z,20.47
2018-08-16T09:21:36.803Z,19.94
2018-08-16T09:24:04.562Z,20.34
2018-08-16T09:26:37.649Z,19.95
2018-08-16T09:29:14.260Z,19.28
2018-08-16T09:31:53.041Z,20.02
2018-08-16T09:34:23.039Z,19.16
2018-08-16T09:36:50.679Z,19.10
2018-08-16T09:39:18.477Z,17.92
2018-08-16T09:41:46.165Z,19.08
2018-08-16T09:44:13.834Z,19.25
2018-08-16T09:47:08.304Z,19.22
2018-08-16T09:49:38.684Z,19.29
2018-08-16T09:52:07.151Z,19.14
2018-08-16T09:54:34.934Z,18.67
2018-08-16T09:57:03.984Z,19.67
2018-08-16T09:59:31.655Z,19.19
2018-08-16T10:01:59.322Z,18.71
2018-08-16T10:04:27.620Z,17.95
2018-08-16T10:06:55.261Z,18.40
2018-08-16T10:09:24.991Z,18.77
2018-08-16T10:11:53.026Z,18.14
2018-08-16T10:14:21.102Z,18.79
2018-08-16T10:16:48.858Z,18.07
2018-08-16T10:19:16.569Z,18.89
2018-08-16T10:21:44.388Z,18.24
2018-08-16T10:24:12.319Z,17.99
2018-08-16T10:26:40.039Z,17.56
2018-08-16T10:29:08.303Z,17.23
2018-08-16T10:31:36.021Z,17.74
2018-08-16T10:34:03.767Z,18.00
2018-08-16T10:36:31.468Z,18.35
2018-08-16T10:38:59.247Z,17.77
2018-08-16T10:41:27.387Z,17.23
2018-08-16T10:43:55.016Z,16.43
2018-08-16T10:46:22.799Z,16.54
2018-08-16T10:48:50.440Z,16.16
2018-08-16T10:51:18.164Z,15.78
2018-08-16T10:53:45.927Z,15.56
2018-08-16T10:56:13.693Z,14.91
2018-08-16T10:58:41.443Z,15.40
2018-08-16T11:01:09.150Z,16.11
2018-08-16T11:03:36.842Z,15.00
2018-08-16T11:06:04.529Z,15.11
2018-08-16T11:08:32.178Z,15.66
2018-08-16T11:10:59.804Z,14.45
2018-08-16T11:13:27.479Z,14.54
2018-08-16T11:15:55.095Z,13.71
2018-08-16T11:18:22.703Z,14.01
2018-08-16T11:20:50.309Z,14.34
2018-08-16T11:23:17.955Z,13.66
2018-08-16T11:25:45.676Z,13.05
2018-08-16T11:28:13.348Z,13.39
2018-08-16T11:30:41.064Z,12.80
2018-08-16T11:33:09.199Z,12.74
2018-08-16T11:35:36.860Z,12.73
2018-08-16T11:38:04.643Z,12.31
2018-08-16T11:40:32.334Z,12.47
2018-08-16T11:42:59.983Z,12.28
2018-08-16T11:45:27.641Z,11.73
2018-08-16T11:47:55.241Z,11.55
2018-08-16T11:50:22.891Z,11.89
2018-08-16T11:52:50.523Z,11.97
2018-08-16T11:55:18.308Z,11.51
2018-08-16T11:57:46.005Z,11.09
2018-08-16T12:00:13.655Z,10.97
2018-08-16T12:02:41.327Z,10.77
2018-08-16T12:05:08.953Z,10.38
2018-08-16T12:07:36.675Z,10.54
2018-08-16T12:10:04.498Z,10.63
2018-08-16T12:12:32.173Z,10.80
2018-08-16T12:14:59.789Z,10.65
2018-08-16T12:17:27.447Z,11.03
2018-08-16T12:19:55.056Z,10.97
2018-08-16T12:22:22.772Z,10.65
2018-08-16T12:24:50.472Z,10.49
2018-08-16T12:27:18.518Z,10.66
2018-08-16T12:29:46.228Z,10.73
2018-08-16T12:32:13.981Z,11.40
2018-08-16T12:34:41.654Z,10.36
2018-08-16T12:37:09.375Z,10.47
2018-08-16T12:39:37.098Z,10.23
2018-08-16T12:42:05.051Z,10.59
2018-08-16T12:44:32.682Z,10.74
2018-08-16T12:47:00.313Z,10.47
2018-08-16T12:49:27.972Z,10.60
2018-08-16T12:51:55.685Z,10.51
2018-08-16T12:54:23.355Z,10.36
2018-08-16T12:56:50.978Z,9.64
2018-08-16T12:59:18.591Z,10.08
2018-08-16T13:01:46.379Z,9.80
2018-08-16T13:04:14.231Z,9.33
2018-08-16T13:06:41.967Z,9.85
2018-08-16T13:09:10.107Z,10.08
2018-08-16T13:11:38.265Z,10.16
2018-08-16T13:14:05.884Z,9.61
2018-08-16T13:16:33.922Z,9.60
2018-08-16T13:19:01.548Z,9.77
2018-08-16T13:21:29.250Z,9.50
2018-08-16T13:23:57.041Z,9.44
2018-08-16T13:26:24.696Z,9.88
2018-08-16T13:28:52.362Z,9.96
2018-08-16T13:31:20.078Z,9.77
2018-08-16T13:33:47.717Z,9.41
2018-08-16T13:36:15.395Z,10.04
2018-08-16T13:38:43.043Z,10.02
2018-08-16T13:41:10.679Z,10.07
2018-08-16T13:43:38.357Z,10.36
2018-08-16T13:46:05.994Z,10.08
2018-08-16T13:48:33.806Z,10.34
2018-08-16T13:51:01.417Z,10.25
2018-08-16T13:53:29.204Z,9.88
2018-08-16T13:55:56.865Z,9.72
2018-08-16T13:58:24.524Z,10.07
2018-08-16T14:00:52.171Z,10.09
2018-08-16T14:03:19.899Z,10.11
2018-08-16T14:05:47.548Z,10.42
2018-08-16T14:08:15.208Z,9.74
2018-08-16T14:10:44.278Z,10.23
2018-08-16T14:13:11.932Z,10.61
2018-08-16T14:15:39.627Z,10.18
2018-08-16T14:18:07.229Z,10.26
2018-08-16T14:20:34.855Z,10.95
2018-08-16T14:23:02.507Z,10.82
2018-08-16T14:25:30.144Z,10.63
2018-08-16T14:27:57.820Z,11.64
2018-08-16T14:30:25.452Z,12.59
2018-08-16T14:32:53.045Z,14.08
2018-08-16T14:35:20.808Z,13.39
2018-08-16T14:37:48.425Z,13.32
2018-08-16T14:40:16.159Z,13.48
2018-08-16T14:42:44.875Z,13.67
2018-08-16T14:45:12.575Z,13.88
2018-08-16T14:47:40.214Z,14.48
2018-08-16T14:50:07.913Z,15.70
2018-08-16T14:52:35.553Z,14.33
2018-08-16T14:55:03.325Z,13.14
2018-08-16T14:57:31.235Z,15.81
2018-08-16T14:59:58.844Z,16.62
2018-08-16T15:02:26.575Z,15.55
2018-08-16T15:04:54.209Z,16.10
2018-08-16T15:07:22.151Z,16.69
2018-08-16T15:09:49.755Z,17.94
2018-08-16T15:12:17.463Z,18.53
2018-08-16T15:14:45.106Z,16.85
2018-08-16T15:17:12.724Z,16.74
2018-08-16T15:19:40.379Z,17.57
2018-08-16T15:22:08.029Z,18.75
2018-08-16T15:24:35.678Z,19.50
2018-08-16T15:27:03.415Z,19.13
2018-08-16T15:29:31.112Z,20.24
2018-08-16T15:31:58.712Z,21.00
2018-08-16T15:34:27.313Z,21.14
2018-08-16T15:36:54.992Z,21.54
2018-08-16T15:39:23.099Z,21.79
2018-08-16T15:41:50.826Z,22.17
2018-08-16T15:44:18.559Z,22.43
2018-08-16T15:46:46.237Z,22.67
2018-08-16T15:49:13.914Z,22.40
2018-08-16T15:51:41.765Z,22.73
2018-08-16T15:54:09.379Z,22.67
2018-08-16T15:56:37.066Z,22.80
2018-08-16T15:59:05.512Z,23.21
2018-08-16T16:01:33.096Z,23.00
2018-08-16T16:04:00.802Z,23.32
2018-08-16T16:06:28.654Z,23.04
2018-08-16T16:08:56.333Z,22.98
2018-08-16T16:11:24.057Z,23.27
2018-08-16T16:13:51.648Z,23.81
2018-08-16T16:16:19.516Z,24.33
2018-08-16T16:18:47.357Z,23.69
2018-08-16T16:21:14.983Z,23.72
2018-08-16T16:23:42.875Z,23.97
2018-08-16T16:26:10.713Z,23.99
2018-08-16T16:28:38.383Z,25.05
2018-08-16T16:31:06.188Z,25.18
2018-08-16T16:33:33.841Z,25.19
2018-08-16T16:36:01.789Z,24.16
2018-08-16T16:38:29.546Z,23.92
2018-08-16T16:40:57.223Z,23.75
2018-08-16T16:43:24.883Z,24.24
2018-08-16T16:45:52.583Z,23.83
2018-08-16T16:48:20.402Z,24.40
2018-08-16T16:50:50.144Z,24.59
2018-08-16T16:53:17.849Z,24.07
2018-08-16T16:55:45.591Z,24.16
2018-08-16T16:58:13.245Z,23.92
2018-08-16T17:00:40.979Z,24.13
2018-08-16T17:03:08.829Z,23.89
2018-08-16T17:05:37.555Z,23.82
2018-08-16T17:08:05.343Z,24.23
2018-08-16T17:10:33.034Z,24.42
2018-08-16T17:13:00.625Z,24.18
2018-08-16T17:15:28.288Z,24.17
2018-08-16T17:17:56.039Z,24.38
2018-08-16T17:20:23.689Z,24.98
2018-08-16T17:22:51.303Z,25.12
2018-08-16T17:25:19.045Z,25.06
2018-08-16T17:27:46.709Z,24.89
2018-08-16T17:30:14.307Z,24.89
2018-08-16T17:32:42.074Z,25.09
2018-08-16T17:35:10.815Z,24.63
2018-08-16T17:37:38.487Z,24.86
2018-08-16T17:40:06.296Z,25.56
2018-08-16T17:42:34.006Z,25.47
2018-08-16T17:45:01.648Z,25.14
2018-08-16T17:47:29.358Z,25.19
2018-08-16T17:49:56.983Z,25.33
2018-08-16T17:52:24.582Z,25.15
2018-08-16T17:54:52.290Z,25.32
2018-08-16T17:57:19.978Z,25.98
2018-08-16T17:59:47.573Z,25.82
2018-08-16T18:02:15.316Z,26.37
2018-08-16T18:04:42.974Z,26.07
2018-08-16T18:07:10.603Z,26.46
2018-08-16T18:09:38.273Z,26.26
2018-08-16T18:12:06.003Z,26.56
2018-08-16T18:14:33.631Z,27.11
2018-08-16T18:17:02.361Z,26.92
2018-08-16T18:19:30.035Z,26.93
2018-08-16T18:21:58.699Z,26.92
2018-08-16T18:24:26.624Z,27.01
2018-08-16T18:26:54.160Z,28.00
2018-08-16T18:29:21.790Z,27.59
2018-08-16T18:31:49.420Z,27.55
2018-08-16T18:34:17.080Z,27.73
2018-08-16T18:36:44.745Z,28.46
2018-08-16T18:39:12.458Z,28.32
2018-08-16T18:41:40.116Z,28.29
2018-08-16T18:44:08.080Z,28.58
2018-08-16T18:46:35.744Z,28.60
2018-08-16T18:49:03.489Z,28.35
2018-08-16T18:51:31.122Z,28.82
2018-08-16T18:53:58.861Z,28.95
2018-08-16T18:56:26.457Z,29.03
2018-08-16T18:58:54.107Z,28.95
2018-08-16T19:01:21.760Z,28.90
2018-08-16T19:03:49.378Z,28.89
2018-08-16T19:06:17.056Z,29.15
2018-08-16T19:08:44.742Z,29.17
2018-08-16T19:11:12.385Z,28.92
2018-08-16T19:13:40.012Z,28.94
2018-08-16T19:16:07.671Z,29.00
2018-08-16T19:18:35.417Z,29.11
2018-08-16T19:21:03.057Z,29.25
2018-08-16T19:23:30.710Z,29.50
2018-08-16T19:25:58.419Z,29.76
2018-08-16T19:28:26.406Z,29.58
2018-08-16T19:30:54.064Z,29.99
2018-08-16T19:33:21.777Z,29.64
2018-08-16T19:35:49.426Z,29.88
2018-08-16T19:38:17.058Z,30.46
2018-08-16T19:40:44.728Z,30.38
2018-08-16T19:43:12.385Z,29.98
2018-08-16T19:45:40.017Z,30.01
2018-08-16T19:48:07.794Z,30.55
2018-08-16T19:50:35.418Z,30.67
2018-08-16T19:53:03.202Z,30.78
2018-08-16T19:55:30.828Z,30.83
2018-08-16T19:57:58.605Z,30.66
2018-08-16T20:00:26.299Z,30.28
2018-08-16T20:02:53.997Z,30.40
2018-08-16T20:05:21.639Z,30.67
2018-08-16T20:07:49.485Z,31.14
2018-08-16T20:10:17.223Z,30.69
2018-08-16T20:12:45.196Z,31.02
2018-08-16T20:15:12.874Z,31.27
2018-08-16T20:17:40.599Z,30.97
2018-08-16T20:20:08.301Z,31.07
2018-08-16T20:22:36.135Z,31.08
2018-08-16T20:25:04.045Z,30.90
2018-08-16T20:27:31.669Z,31.35
2018-08-16T20:29:59.368Z,31.43
2018-08-16T20:32:27.021Z,31.28
2018-08-16T20:34:54.728Z,31.48
2018-08-16T20:37:22.388Z,31.69
2018-08-16T20:39:50.021Z,31.88
2018-08-16T20:42:17.695Z,31.77
2018-08-16T20:44:45.327Z,32.23
2018-08-16T20:47:12.992Z,31.88
2018-08-16T20:49:40.652Z,31.63
2018-08-16T20:52:08.602Z,31.88
2018-08-16T20:54:36.254Z,31.59
2018-08-16T20:57:04.034Z,31.62
2018-08-16T20:59:31.686Z,31.69
2018-08-16T21:01:59.327Z,31.67
2018-08-16T21:04:26.961Z,31.68
2018-08-16T21:06:54.584Z,31.94
2018-08-16T21:09:22.406Z,32.07
2018-08-16T21:11:50.087Z,32.14
2018-08-16T21:14:17.804Z,31.81
2018-08-16T21:16:45.486Z,31.88
2018-08-16T21:19:13.136Z,32.28
2018-08-16T21:21:40.931Z,32.36
2018-08-16T21:24:08.524Z,32.61
2018-08-16T21:26:36.124Z,32.45
2018-08-16T21:29:03.831Z,33.10
2018-08-16T21:31:31.410Z,33.03
2018-08-16T21:33:59.100Z,32.90
2018-08-16T21:36:26.783Z,32.74
2018-08-16T21:38:54.379Z,32.87
2018-08-16T21:41:21.991Z,33.04
2018-08-16T21:43:49.644Z,33.29
2018-08-16T21:46:17.255Z,33.11
2018-08-16T21:48:44.860Z,33.14
2018-08-16T21:51:12.478Z,32.97
2018-08-16T21:53:40.107Z,33.18
2018-08-16T21:56:07.709Z,33.16
2018-08-16T21:58:35.398Z,33.21
2018-08-16T22:01:07.167Z,33.69
2018-08-16T22:03:34.854Z,33.14
2018-08-16T22:06:06.114Z,33.21
2018-08-16T22:08:42.606Z,33.17
2018-08-16T22:11:10.482Z,33.35
2018-08-16T22:13:38.423Z,33.61
2018-08-16T22:16:06.267Z,33.36
2018-08-16T22:18:33.926Z,33.42
2018-08-16T22:21:01.687Z,33.39
2018-08-16T22:23:29.394Z,33.76
2018-08-16T22:25:57.019Z,33.74
2018-08-16T22:28:24.666Z,33.65
2018-08-16T22:30:52.361Z,33.53
2018-08-16T22:33:20.034Z,33.46
2018-08-16T22:35:47.628Z,33.60
2018-08-16T22:38:15.359Z,33.74
2018-08-16T22:40:43.034Z,33.79
2018-08-16T22:43:10.743Z,33.44
2018-08-16T22:45:38.486Z,33.58
2018-08-16T22:48:06.237Z,33.77
2018-08-16T22:50:33.927Z,33.66
2018-08-16T22:53:01.669Z,33.49
2018-08-16T22:55:29.412Z,33.72
2018-08-16T22:57:57.059Z,33.60
2018-08-16T23:00:24.791Z,33.49
2018-08-16T23:02:52.463Z,33.51
2018-08-16T23:05:20.108Z,33.68
2018-08-16T23:07:47.724Z,33.47
2018-08-16T23:10:15.464Z,33.61
2018-08-16T23:12:43.067Z,33.57
2018-08-16T23:15:10.707Z,33.57
2018-08-16T23:17:38.332Z,33.31
2018-08-16T23:20:06.673Z,33.24
2018-08-16T23:22:34.373Z,33.52
2018-08-16T23:25:01.997Z,33.35
2018-08-16T23:27:29.639Z,33.71
2018-08-16T23:29:57.396Z,33.84
2018-08-16T23:32:25.014Z,33.32
2018-08-16T23:34:52.749Z,33.22
2018-08-16T23:37:20.459Z,33.90
2018-08-16T23:39:48.311Z,33.94
2018-08-16T23:42:16.690Z,33.56
2018-08-16T23:44:44.458Z,33.53
2018-08-16T23:47:12.110Z,33.67
2018-08-16T23:49:39.730Z,33.72
2018-08-16T23:52:07.384Z,33.72
2018-08-16T23:54:35.140Z,33.76
2018-08-16T23:57:02.826Z,33.85
2018-08-16T23:59:30.512Z,34.08
